sensor_id;sensor_type;location;lat;lon;timestamp;temperature;humidity
19952;DHT22;10137;49.406;19.484;2023-05-02T00:00:12;8.80;94.60
19952;DHT22;10137;49.406;19.484;2023-05-02T00:02:39;8.80;95.70
19952;DHT22;10137;49.406;19.484;2023-05-02T00:05:08;8.80;95.30
19952;DHT22;10137;49.406;19.484;2023-05-02T00:07:35;8.80;94.10
19952;DHT22;10137;49.406;19.484;2023-05-02T00:10:04;8.90;93.00
19952;DHT22;10137;49.406;19.484;2023-05-02T00:12:33;8.90;92.20
19952;DHT22;10137;49.406;19.484;2023-05-02T00:15:05;9.00;92.00
19952;DHT22;10137;49.406;19.484;2023-05-02T00:17:38;9.00;91.50
19952;DHT22;10137;49.406;19.484;2023-05-02T00:20:08;9.10;91.80
19952;DHT22;10137;49.406;19.484;2023-05-02T00:22:37;9.20;90.60
19952;DHT22;10137;49.406;19.484;2023-05-02T00:25:09;9.20;90.50
19952;DHT22;10137;49.406;19.484;2023-05-02T00:27:42;9.30;88.80
19952;DHT22;10137;49.406;19.484;2023-05-02T00:30:14;9.40;87.80
19952;DHT22;10137;49.406;19.484;2023-05-02T00:32:42;9.50;86.10
19952;DHT22;10137;49.406;19.484;2023-05-02T00:35:12;9.60;85.00
19952;DHT22;10137;49.406;19.484;2023-05-02T00:37:39;9.60;84.10
19952;DHT22;10137;49.406;19.484;2023-05-02T00:40:08;9.60;84.20
19952;DHT22;10137;49.406;19.484;2023-05-02T00:42:36;9.60;83.00
19952;DHT22;10137;49.406;19.484;2023-05-02T00:45:05;9.60;82.80
19952;DHT22;10137;49.406;19.484;2023-05-02T00:47:36;9.70;82.30
19952;DHT22;10137;49.406;19.484;2023-05-02T00:50:05;9.70;81.80
19952;DHT22;10137;49.406;19.484;2023-05-02T00:52:33;9.70;82.50
19952;DHT22;10137;49.406;19.484;2023-05-02T00:55:01;9.70;83.50
19952;DHT22;10137;49.406;19.484;2023-05-02T00:57:30;9.60;83.40
19952;DHT22;10137;49.406;19.484;2023-05-02T01:00:00;9.60;83.80
19952;DHT22;10137;49.406;19.484;2023-05-02T01:02:41;9.50;84.40
19952;DHT22;10137;49.406;19.484;2023-05-02T01:05:14;9.50;85.50
19952;DHT22;10137;49.406;19.484;2023-05-02T01:08:00;9.40;86.20
19952;DHT22;10137;49.406;19.484;2023-05-02T01:10:40;9.30;87.60
19952;DHT22;10137;49.406;19.484;2023-05-02T01:13:18;9.20;88.90
19952;DHT22;10137;49.406;19.484;2023-05-02T01:15:50;9.10;88.80
19952;DHT22;10137;49.406;19.484;2023-05-02T01:18:22;9.10;88.80
19952;DHT22;10137;49.406;19.484;2023-05-02T01:20:55;9.10;88.80
19952;DHT22;10137;49.406;19.484;2023-05-02T01:23:29;9.10;89.40
19952;DHT22;10137;49.406;19.484;2023-05-02T01:26:09;9.20;88.90
19952;DHT22;10137;49.406;19.484;2023-05-02T01:28:56;9.20;88.10
19952;DHT22;10137;49.406;19.484;2023-05-02T01:31:26;9.20;87.50
19952;DHT22;10137;49.406;19.484;2023-05-02T01:34:00;9.30;87.40
19952;DHT22;10137;49.406;19.484;2023-05-02T01:36:34;9.20;87.10
19952;DHT22;10137;49.406;19.484;2023-05-02T01:39:03;9.20;86.60
19952;DHT22;10137;49.406;19.484;2023-05-02T01:41:34;9.20;86.90
19952;DHT22;10137;49.406;19.484;2023-05-02T01:44:11;9.20;87.10
19952;DHT22;10137;49.406;19.484;2023-05-02T01:46:41;9.10;87.20
19952;DHT22;10137;49.406;19.484;2023-05-02T01:49:10;9.10;88.10
19952;DHT22;10137;49.406;19.484;2023-05-02T01:51:44;9.10;90.30
19952;DHT22;10137;49.406;19.484;2023-05-02T01:54:17;9.10;92.50
19952;DHT22;10137;49.406;19.484;2023-05-02T01:56:47;9.10;94.80
19952;DHT22;10137;49.406;19.484;2023-05-02T01:59:19;9.20;99.90
19952;DHT22;10137;49.406;19.484;2023-05-02T02:01:49;9.20;99.90
19952;DHT22;10137;49.406;19.484;2023-05-02T02:04:22;9.10;99.90
19952;DHT22;10137;49.406;19.484;2023-05-02T02:06:57;9.10;99.90
19952;DHT22;10137;49.406;19.484;2023-05-02T02:09:28;9.00;99.90
19952;DHT22;10137;49.406;19.484;2023-05-02T02:12:01;8.90;99.90
19952;DHT22;10137;49.406;19.484;2023-05-02T02:14:37;8.80;99.90
19952;DHT22;10137;49.406;19.484;2023-05-02T02:17:11;8.80;99.90
19952;DHT22;10137;49.406;19.484;2023-05-02T02:19:42;8.70;99.90
19952;DHT22;10137;49.406;19.484;2023-05-02T02:22:12;8.70;99.90
19952;DHT22;10137;49.406;19.484;2023-05-02T02:24:42;8.60;99.90
19952;DHT22;10137;49.406;19.484;2023-05-02T02:27:11;8.50;99.90
19952;DHT22;10137;49.406;19.484;2023-05-02T02:29:41;8.40;99.90
19952;DHT22;10137;49.406;19.484;2023-05-02T02:32:10;8.30;99.90
19952;DHT22;10137;49.406;19.484;2023-05-02T02:34:40;8.20;99.90
19952;DHT22;10137;49.406;19.484;2023-05-02T02:37:14;8.10;99.90
19952;DHT22;10137;49.406;19.484;2023-05-02T02:39:50;8.00;99.90
19952;DHT22;10137;49.406;19.484;2023-05-02T02:42:29;8.00;99.90
19952;DHT22;10137;49.406;19.484;2023-05-02T02:45:11;7.90;99.90
19952;DHT22;10137;49.406;19.484;2023-05-02T02:47:45;7.80;99.90
19952;DHT22;10137;49.406;19.484;2023-05-02T02:50:22;7.80;99.90
19952;DHT22;10137;49.406;19.484;2023-05-02T02:52:58;7.80;99.90
19952;DHT22;10137;49.406;19.484;2023-05-02T02:55:39;7.70;99.90
19952;DHT22;10137;49.406;19.484;2023-05-02T02:58:20;7.70;99.90
19952;DHT22;10137;49.406;19.484;2023-05-02T03:01:17;7.70;99.90
19952;DHT22;10137;49.406;19.484;2023-05-02T03:03:47;7.80;99.90
19952;DHT22;10137;49.406;19.484;2023-05-02T03:06:19;7.80;99.90
19952;DHT22;10137;49.406;19.484;2023-05-02T03:08:48;7.70;99.90
19952;DHT22;10137;49.406;19.484;2023-05-02T03:11:17;7.70;99.90
19952;DHT22;10137;49.406;19.484;2023-05-02T03:13:46;7.70;99.90
19952;DHT22;10137;49.406;19.484;2023-05-02T03:16:39;7.70;99.90
19952;DHT22;10137;49.406;19.484;2023-05-02T03:19:07;7.70;99.90
19952;DHT22;10137;49.406;19.484;2023-05-02T03:21:35;7.60;99.90
19952;DHT22;10137;49.406;19.484;2023-05-02T03:24:04;7.60;99.90
19952;DHT22;10137;49.406;19.484;2023-05-02T03:26:34;7.60;99.90
19952;DHT22;10137;49.406;19.484;2023-05-02T03:29:02;7.60;99.90
19952;DHT22;10137;49.406;19.484;2023-05-02T03:31:30;7.60;99.90
19952;DHT22;10137;49.406;19.484;2023-05-02T03:33:59;7.60;99.90
19952;DHT22;10137;49.406;19.484;2023-05-02T03:36:29;7.60;99.90
19952;DHT22;10137;49.406;19.484;2023-05-02T03:38:57;7.50;99.90
19952;DHT22;10137;49.406;19.484;2023-05-02T03:41:25;7.50;99.90
19952;DHT22;10137;49.406;19.484;2023-05-02T03:43:56;7.60;99.90
19952;DHT22;10137;49.406;19.484;2023-05-02T03:46:26;7.50;99.90
19952;DHT22;10137;49.406;19.484;2023-05-02T03:48:56;7.50;99.90
19952;DHT22;10137;49.406;19.484;2023-05-02T03:51:29;7.50;99.90
19952;DHT22;10137;49.406;19.484;2023-05-02T03:53:59;7.50;99.90
19952;DHT22;10137;49.406;19.484;2023-05-02T03:56:28;7.40;99.90
19952;DHT22;10137;49.406;19.484;2023-05-02T03:58:56;7.40;99.90
19952;DHT22;10137;49.406;19.484;2023-05-02T04:01:24;7.50;99.90
19952;DHT22;10137;49.406;19.484;2023-05-02T04:03:52;7.50;99.90
19952;DHT22;10137;49.406;19.484;2023-05-02T04:06:21;7.50;99.90
19952;DHT22;10137;49.406;19.484;2023-05-02T04:08:55;7.40;99.90
19952;DHT22;10137;49.406;19.484;2023-05-02T04:11:28;7.40;99.90
19952;DHT22;10137;49.406;19.484;2023-05-02T04:13:57;7.50;99.90
19952;DHT22;10137;49.406;19.484;2023-05-02T04:16:26;7.50;99.90
19952;DHT22;10137;49.406;19.484;2023-05-02T04:18:54;7.50;99.90
19952;DHT22;10137;49.406;19.484;2023-05-02T04:21:22;7.60;99.90
19952;DHT22;10137;49.406;19.484;2023-05-02T04:23:55;7.60;99.90
19952;DHT22;10137;49.406;19.484;2023-05-02T04:26:24;7.70;99.90
19952;DHT22;10137;49.406;19.484;2023-05-02T04:28:52;7.80;99.90
19952;DHT22;10137;49.406;19.484;2023-05-02T04:31:21;7.80;99.90
19952;DHT22;10137;49.406;19.484;2023-05-02T04:33:49;8.00;99.90
19952;DHT22;10137;49.406;19.484;2023-05-02T04:36:18;7.90;99.90
19952;DHT22;10137;49.406;19.484;2023-05-02T04:38:46;8.00;99.90
19952;DHT22;10137;49.406;19.484;2023-05-02T04:41:15;8.10;99.90
19952;DHT22;10137;49.406;19.484;2023-05-02T04:43:44;8.20;99.90
19952;DHT22;10137;49.406;19.484;2023-05-02T04:46:12;8.20;99.90
19952;DHT22;10137;49.406;19.484;2023-05-02T04:48:40;8.30;99.90
19952;DHT22;10137;49.406;19.484;2023-05-02T04:51:08;8.30;99.90
19952;DHT22;10137;49.406;19.484;2023-05-02T04:53:37;8.40;99.90
19952;DHT22;10137;49.406;19.484;2023-05-02T04:56:06;8.50;99.90
19952;DHT22;10137;49.406;19.484;2023-05-02T04:58:36;8.50;99.90
19952;DHT22;10137;49.406;19.484;2023-05-02T05:01:04;8.60;99.90
19952;DHT22;10137;49.406;19.484;2023-05-02T05:03:32;8.60;99.90
19952;DHT22;10137;49.406;19.484;2023-05-02T05:06:01;8.60;99.90
19952;DHT22;10137;49.406;19.484;2023-05-02T05:08:29;8.60;99.90
19952;DHT22;10137;49.406;19.484;2023-05-02T05:10:57;8.60;99.90
19952;DHT22;10137;49.406;19.484;2023-05-02T05:13:26;8.60;99.90
19952;DHT22;10137;49.406;19.484;2023-05-02T05:15:56;8.60;99.90
19952;DHT22;10137;49.406;19.484;2023-05-02T05:18:25;8.60;99.90
19952;DHT22;10137;49.406;19.484;2023-05-02T05:20:53;8.60;99.90
19952;DHT22;10137;49.406;19.484;2023-05-02T05:23:21;8.60;99.90
19952;DHT22;10137;49.406;19.484;2023-05-02T05:25:49;8.60;99.90
19952;DHT22;10137;49.406;19.484;2023-05-02T05:28:18;8.60;99.90
19952;DHT22;10137;49.406;19.484;2023-05-02T05:30:46;8.60;99.90
19952;DHT22;10137;49.406;19.484;2023-05-02T05:33:16;8.60;99.90
19952;DHT22;10137;49.406;19.484;2023-05-02T05:35:44;8.70;99.90
19952;DHT22;10137;49.406;19.484;2023-05-02T05:38:12;8.70;99.90
19952;DHT22;10137;49.406;19.484;2023-05-02T05:40:41;8.60;99.90
19952;DHT22;10137;49.406;19.484;2023-05-02T05:43:09;8.60;99.90
19952;DHT22;10137;49.406;19.484;2023-05-02T05:45:41;8.60;99.90
19952;DHT22;10137;49.406;19.484;2023-05-02T05:48:09;8.60;99.90
19952;DHT22;10137;49.406;19.484;2023-05-02T05:50:38;8.60;99.90
19952;DHT22;10137;49.406;19.484;2023-05-02T05:53:06;8.50;99.90
19952;DHT22;10137;49.406;19.484;2023-05-02T05:55:35;8.50;99.90
19952;DHT22;10137;49.406;19.484;2023-05-02T05:58:04;8.50;99.90
19952;DHT22;10137;49.406;19.484;2023-05-02T06:00:33;8.50;99.90
19952;DHT22;10137;49.406;19.484;2023-05-02T06:03:02;8.60;99.90
19952;DHT22;10137;49.406;19.484;2023-05-02T06:05:31;8.60;99.90
19952;DHT22;10137;49.406;19.484;2023-05-02T06:08:01;8.70;99.90
19952;DHT22;10137;49.406;19.484;2023-05-02T06:10:30;8.80;99.90
19952;DHT22;10137;49.406;19.484;2023-05-02T06:12:58;8.90;99.90
19952;DHT22;10137;49.406;19.484;2023-05-02T06:15:26;8.90;99.90
19952;DHT22;10137;49.406;19.484;2023-05-02T06:17:55;9.00;99.90
19952;DHT22;10137;49.406;19.484;2023-05-02T06:20:23;9.00;99.90
19952;DHT22;10137;49.406;19.484;2023-05-02T06:22:51;9.00;99.90
19952;DHT22;10137;49.406;19.484;2023-05-02T06:25:21;9.10;99.90
19952;DHT22;10137;49.406;19.484;2023-05-02T06:27:49;9.10;99.90
19952;DHT22;10137;49.406;19.484;2023-05-02T06:30:17;9.10;99.90
19952;DHT22;10137;49.406;19.484;2023-05-02T06:32:45;9.10;99.90
19952;DHT22;10137;49.406;19.484;2023-05-02T06:35:13;9.20;99.90
19952;DHT22;10137;49.406;19.484;2023-05-02T06:37:41;9.30;99.90
19952;DHT22;10137;49.406;19.484;2023-05-02T06:40:10;9.40;99.90
19952;DHT22;10137;49.406;19.484;2023-05-02T06:42:40;9.50;99.90
19952;DHT22;10137;49.406;19.484;2023-05-02T06:45:09;9.60;99.90
19952;DHT22;10137;49.406;19.484;2023-05-02T06:47:37;9.80;99.90
19952;DHT22;10137;49.406;19.484;2023-05-02T06:50:08;9.90;99.90
19952;DHT22;10137;49.406;19.484;2023-05-02T06:52:37;10.20;99.90
19952;DHT22;10137;49.406;19.484;2023-05-02T06:55:06;10.60;99.90
19952;DHT22;10137;49.406;19.484;2023-05-02T06:57:34;11.00;99.90
19952;DHT22;10137;49.406;19.484;2023-05-02T07:00:05;11.20;99.90
19952;DHT22;10137;49.406;19.484;2023-05-02T07:02:33;11.40;99.90
19952;DHT22;10137;49.406;19.484;2023-05-02T07:05:02;11.60;99.90
19952;DHT22;10137;49.406;19.484;2023-05-02T07:07:30;12.10;99.90
19952;DHT22;10137;49.406;19.484;2023-05-02T07:09:59;12.50;99.90
19952;DHT22;10137;49.406;19.484;2023-05-02T07:12:27;12.80;99.90
19952;DHT22;10137;49.406;19.484;2023-05-02T07:14:56;13.20;99.90
19952;DHT22;10137;49.406;19.484;2023-05-02T07:17:25;13.60;99.90
19952;DHT22;10137;49.406;19.484;2023-05-02T07:19:53;14.00;99.90
19952;DHT22;10137;49.406;19.484;2023-05-02T07:22:21;14.10;99.90
19952;DHT22;10137;49.406;19.484;2023-05-02T07:24:59;14.40;99.90
19952;DHT22;10137;49.406;19.484;2023-05-02T07:27:28;14.60;99.90
19952;DHT22;10137;49.406;19.484;2023-05-02T07:29:56;14.90;99.90
19952;DHT22;10137;49.406;19.484;2023-05-02T07:32:28;15.20;99.90
19952;DHT22;10137;49.406;19.484;2023-05-02T07:34:57;15.30;99.90
19952;DHT22;10137;49.406;19.484;2023-05-02T07:37:24;15.60;99.90
19952;DHT22;10137;49.406;19.484;2023-05-02T07:39:54;15.90;99.70
19952;DHT22;10137;49.406;19.484;2023-05-02T07:42:28;16.00;98.50
19952;DHT22;10137;49.406;19.484;2023-05-02T07:44:57;16.20;97.20
19952;DHT22;10137;49.406;19.484;2023-05-02T07:47:25;16.50;96.80
19952;DHT22;10137;49.406;19.484;2023-05-02T07:49:55;16.80;94.90
19952;DHT22;10137;49.406;19.484;2023-05-02T07:52:26;17.10;95.20
19952;DHT22;10137;49.406;19.484;2023-05-02T07:54:55;17.40;93.90
19952;DHT22;10137;49.406;19.484;2023-05-02T07:57:23;17.70;92.20
19952;DHT22;10137;49.406;19.484;2023-05-02T07:59:51;18.00;90.40
19952;DHT22;10137;49.406;19.484;2023-05-02T08:02:23;18.20;90.10
19952;DHT22;10137;49.406;19.484;2023-05-02T08:04:51;18.50;90.40
19952;DHT22;10137;49.406;19.484;2023-05-02T08:07:21;18.80;87.80
19952;DHT22;10137;49.406;19.484;2023-05-02T08:09:50;19.00;84.70
19952;DHT22;10137;49.406;19.484;2023-05-02T08:12:18;19.20;86.80
19952;DHT22;10137;49.406;19.484;2023-05-02T08:14:46;19.40;83.50
19952;DHT22;10137;49.406;19.484;2023-05-02T08:17:14;19.40;82.10
19952;DHT22;10137;49.406;19.484;2023-05-02T08:19:43;19.50;82.70
19952;DHT22;10137;49.406;19.484;2023-05-02T08:22:10;19.70;79.80
19952;DHT22;10137;49.406;19.484;2023-05-02T08:24:39;20.00;78.70
19952;DHT22;10137;49.406;19.484;2023-05-02T08:27:07;20.00;77.80
19952;DHT22;10137;49.406;19.484;2023-05-02T08:29:36;20.20;78.10
19952;DHT22;10137;49.406;19.484;2023-05-02T08:32:04;20.20;76.80
19952;DHT22;10137;49.406;19.484;2023-05-02T08:34:32;20.50;76.30
19952;DHT22;10137;49.406;19.484;2023-05-02T08:37:06;20.50;74.40
19952;DHT22;10137;49.406;19.484;2023-05-02T08:39:34;20.60;75.30
19952;DHT22;10137;49.406;19.484;2023-05-02T08:42:06;20.60;74.10
19952;DHT22;10137;49.406;19.484;2023-05-02T08:44:36;20.50;75.20
19952;DHT22;10137;49.406;19.484;2023-05-02T08:47:04;20.40;74.40
19952;DHT22;10137;49.406;19.484;2023-05-02T08:49:34;20.10;72.30
19952;DHT22;10137;49.406;19.484;2023-05-02T08:52:03;20.00;74.50
19952;DHT22;10137;49.406;19.484;2023-05-02T08:54:33;20.10;74.70
19952;DHT22;10137;49.406;19.484;2023-05-02T08:57:06;20.50;75.20
19952;DHT22;10137;49.406;19.484;2023-05-02T08:59:34;20.60;72.80
19952;DHT22;10137;49.406;19.484;2023-05-02T09:02:09;20.70;73.10
19952;DHT22;10137;49.406;19.484;2023-05-02T09:04:40;20.90;73.10
19952;DHT22;10137;49.406;19.484;2023-05-02T09:07:10;20.90;71.70
19952;DHT22;10137;49.406;19.484;2023-05-02T09:09:39;21.00;71.10
19952;DHT22;10137;49.406;19.484;2023-05-02T09:12:08;21.10;71.20
19952;DHT22;10137;49.406;19.484;2023-05-02T09:14:36;21.00;70.20
19952;DHT22;10137;49.406;19.484;2023-05-02T09:17:05;21.10;71.10
19952;DHT22;10137;49.406;19.484;2023-05-02T09:19:33;20.90;70.00
19952;DHT22;10137;49.406;19.484;2023-05-02T09:22:02;20.70;70.30
19952;DHT22;10137;49.406;19.484;2023-05-02T09:24:31;20.50;70.70
19952;DHT22;10137;49.406;19.484;2023-05-02T09:27:00;20.40;71.30
19952;DHT22;10137;49.406;19.484;2023-05-02T09:29:32;20.40;72.20
19952;DHT22;10137;49.406;19.484;2023-05-02T09:32:04;20.20;72.10
19952;DHT22;10137;49.406;19.484;2023-05-02T09:34:33;20.10;72.50
19952;DHT22;10137;49.406;19.484;2023-05-02T09:37:02;19.90;73.50
19952;DHT22;10137;49.406;19.484;2023-05-02T09:39:31;20.20;73.20
19952;DHT22;10137;49.406;19.484;2023-05-02T09:41:59;20.50;73.10
19952;DHT22;10137;49.406;19.484;2023-05-02T09:44:38;20.50;71.60
19952;DHT22;10137;49.406;19.484;2023-05-02T09:47:08;20.40;71.90
19952;DHT22;10137;49.406;19.484;2023-05-02T09:49:40;20.50;72.30
19952;DHT22;10137;49.406;19.484;2023-05-02T09:52:11;20.50;70.00
19952;DHT22;10137;49.406;19.484;2023-05-02T09:54:39;20.10;70.00
19952;DHT22;10137;49.406;19.484;2023-05-02T09:57:08;20.00;70.70
19952;DHT22;10137;49.406;19.484;2023-05-02T09:59:40;19.90;71.50
19952;DHT22;10137;49.406;19.484;2023-05-02T10:02:09;19.80;70.50
19952;DHT22;10137;49.406;19.484;2023-05-02T10:04:39;19.80;71.40
19952;DHT22;10137;49.406;19.484;2023-05-02T10:07:08;19.60;71.00
19952;DHT22;10137;49.406;19.484;2023-05-02T10:09:42;19.60;72.10
19952;DHT22;10137;49.406;19.484;2023-05-02T10:12:13;19.40;72.30
19952;DHT22;10137;49.406;19.484;2023-05-02T10:14:48;19.30;72.10
19952;DHT22;10137;49.406;19.484;2023-05-02T10:17:21;19.20;73.00
19952;DHT22;10137;49.406;19.484;2023-05-02T10:19:56;19.10;73.60
19952;DHT22;10137;49.406;19.484;2023-05-02T10:22:26;19.10;74.60
19952;DHT22;10137;49.406;19.484;2023-05-02T10:24:57;19.20;74.40
19952;DHT22;10137;49.406;19.484;2023-05-02T10:27:28;19.20;74.80
19952;DHT22;10137;49.406;19.484;2023-05-02T10:29:59;19.20;74.30
19952;DHT22;10137;49.406;19.484;2023-05-02T10:32:28;19.00;73.60
19952;DHT22;10137;49.406;19.484;2023-05-02T10:34:56;19.00;73.60
19952;DHT22;10137;49.406;19.484;2023-05-02T10:37:30;19.10;74.50
19952;DHT22;10137;49.406;19.484;2023-05-02T10:39:59;19.20;74.70
19952;DHT22;10137;49.406;19.484;2023-05-02T10:42:29;19.40;75.50
19952;DHT22;10137;49.406;19.484;2023-05-02T10:44:58;19.50;73.90
19952;DHT22;10137;49.406;19.484;2023-05-02T10:47:27;19.50;71.50
19952;DHT22;10137;49.406;19.484;2023-05-02T10:49:58;19.40;72.10
19952;DHT22;10137;49.406;19.484;2023-05-02T10:52:28;19.40;72.80
19952;DHT22;10137;49.406;19.484;2023-05-02T10:55:23;19.60;73.60
19952;DHT22;10137;49.406;19.484;2023-05-02T10:58:23;19.60;72.80
19952;DHT22;10137;49.406;19.484;2023-05-02T11:00:52;19.60;71.30
19952;DHT22;10137;49.406;19.484;2023-05-02T11:03:55;19.50;71.40
19952;DHT22;10137;49.406;19.484;2023-05-02T11:06:22;19.50;71.20
19952;DHT22;10137;49.406;19.484;2023-05-02T11:08:49;19.60;71.70
19952;DHT22;10137;49.406;19.484;2023-05-02T11:11:40;19.60;72.40
19952;DHT22;10137;49.406;19.484;2023-05-02T11:14:09;19.90;72.90
19952;DHT22;10137;49.406;19.484;2023-05-02T11:17:07;20.00;73.90
19952;DHT22;10137;49.406;19.484;2023-05-02T11:22:57;20.10;71.50
19952;DHT22;10137;49.406;19.484;2023-05-02T11:25:34;19.90;69.30
19952;DHT22;10137;49.406;19.484;2023-05-02T11:28:05;19.90;69.60
19952;DHT22;10137;49.406;19.484;2023-05-02T11:30:51;19.90;71.20
19952;DHT22;10137;49.406;19.484;2023-05-02T11:33:21;20.00;72.00
19952;DHT22;10137;49.406;19.484;2023-05-02T11:35:49;20.10;72.40
19952;DHT22;10137;49.406;19.484;2023-05-02T11:38:27;20.00;70.50
19952;DHT22;10137;49.406;19.484;2023-05-02T11:41:02;20.00;71.80
19952;DHT22;10137;49.406;19.484;2023-05-02T11:43:31;20.00;70.90
19952;DHT22;10137;49.406;19.484;2023-05-02T11:46:01;19.90;72.50
19952;DHT22;10137;49.406;19.484;2023-05-02T11:48:33;20.00;71.60
19952;DHT22;10137;49.406;19.484;2023-05-02T11:51:01;20.00;71.90
19952;DHT22;10137;49.406;19.484;2023-05-02T11:53:31;20.00;72.10
19952;DHT22;10137;49.406;19.484;2023-05-02T11:56:01;19.90;70.20
19952;DHT22;10137;49.406;19.484;2023-05-02T11:58:30;19.70;70.50
19952;DHT22;10137;49.406;19.484;2023-05-02T12:01:10;19.90;72.40
19952;DHT22;10137;49.406;19.484;2023-05-02T12:03:40;19.70;70.40
19952;DHT22;10137;49.406;19.484;2023-05-02T12:06:10;19.60;72.30
19952;DHT22;10137;49.406;19.484;2023-05-02T12:08:39;19.80;73.10
19952;DHT22;10137;49.406;19.484;2023-05-02T12:11:08;19.80;72.60
19952;DHT22;10137;49.406;19.484;2023-05-02T12:13:43;19.90;72.00
19952;DHT22;10137;49.406;19.484;2023-05-02T12:16:12;19.80;71.10
19952;DHT22;10137;49.406;19.484;2023-05-02T12:18:42;19.90;71.80
19952;DHT22;10137;49.406;19.484;2023-05-02T12:21:11;19.90;71.50
19952;DHT22;10137;49.406;19.484;2023-05-02T12:23:39;20.00;73.30
19952;DHT22;10137;49.406;19.484;2023-05-02T12:26:18;20.00;72.00
19952;DHT22;10137;49.406;19.484;2023-05-02T12:28:51;19.90;70.80
19952;DHT22;10137;49.406;19.484;2023-05-02T12:31:21;19.80;69.50
19952;DHT22;10137;49.406;19.484;2023-05-02T12:33:52;19.70;70.70
19952;DHT22;10137;49.406;19.484;2023-05-02T12:36:23;19.70;69.80
19952;DHT22;10137;49.406;19.484;2023-05-02T12:38:52;19.70;70.50
19952;DHT22;10137;49.406;19.484;2023-05-02T12:41:32;19.50;70.20
19952;DHT22;10137;49.406;19.484;2023-05-02T12:44:01;19.60;69.70
19952;DHT22;10137;49.406;19.484;2023-05-02T12:46:30;19.60;70.70
19952;DHT22;10137;49.406;19.484;2023-05-02T12:49:06;19.60;70.00
19952;DHT22;10137;49.406;19.484;2023-05-02T12:51:35;19.60;70.70
19952;DHT22;10137;49.406;19.484;2023-05-02T12:54:05;19.60;71.10
19952;DHT22;10137;49.406;19.484;2023-05-02T12:56:43;19.70;71.90
19952;DHT22;10137;49.406;19.484;2023-05-02T12:59:25;19.90;72.10
19952;DHT22;10137;49.406;19.484;2023-05-02T13:01:54;19.80;70.40
19952;DHT22;10137;49.406;19.484;2023-05-02T13:04:37;19.90;70.20
19952;DHT22;10137;49.406;19.484;2023-05-02T13:07:07;20.10;70.90
19952;DHT22;10137;49.406;19.484;2023-05-02T13:09:37;20.20;70.30
19952;DHT22;10137;49.406;19.484;2023-05-02T13:12:05;20.30;70.60
19952;DHT22;10137;49.406;19.484;2023-05-02T13:14:34;20.10;68.50
19952;DHT22;10137;49.406;19.484;2023-05-02T13:17:02;20.00;69.50
19952;DHT22;10137;49.406;19.484;2023-05-02T13:19:30;19.80;68.90
19952;DHT22;10137;49.406;19.484;2023-05-02T13:22:00;19.80;73.60
19952;DHT22;10137;49.406;19.484;2023-05-02T13:24:28;19.90;75.70
19952;DHT22;10137;49.406;19.484;2023-05-02T13:26:57;19.90;76.40
19952;DHT22;10137;49.406;19.484;2023-05-02T13:29:25;19.90;76.50
19952;DHT22;10137;49.406;19.484;2023-05-02T13:31:54;19.80;72.10
19952;DHT22;10137;49.406;19.484;2023-05-02T13:34:22;19.60;71.00
19952;DHT22;10137;49.406;19.484;2023-05-02T13:36:51;19.50;71.50
19952;DHT22;10137;49.406;19.484;2023-05-02T13:39:21;19.40;72.10
19952;DHT22;10137;49.406;19.484;2023-05-02T13:41:50;19.30;71.70
19952;DHT22;10137;49.406;19.484;2023-05-02T13:44:17;19.30;74.40
19952;DHT22;10137;49.406;19.484;2023-05-02T13:46:46;19.40;75.60
19952;DHT22;10137;49.406;19.484;2023-05-02T13:49:14;19.40;77.70
19952;DHT22;10137;49.406;19.484;2023-05-02T13:51:43;19.30;78.10
19952;DHT22;10137;49.406;19.484;2023-05-02T13:54:11;19.40;79.00
19952;DHT22;10137;49.406;19.484;2023-05-02T13:56:41;19.40;79.50
19952;DHT22;10137;49.406;19.484;2023-05-02T13:59:09;19.30;79.20
19952;DHT22;10137;49.406;19.484;2023-05-02T14:01:37;19.40;79.80
19952;DHT22;10137;49.406;19.484;2023-05-02T14:04:06;19.30;80.90
19952;DHT22;10137;49.406;19.484;2023-05-02T14:06:37;19.30;80.50
19952;DHT22;10137;49.406;19.484;2023-05-02T14:09:06;19.20;80.40
19952;DHT22;10137;49.406;19.484;2023-05-02T14:11:34;19.10;81.00
19952;DHT22;10137;49.406;19.484;2023-05-02T14:14:04;19.00;81.00
19952;DHT22;10137;49.406;19.484;2023-05-02T14:16:33;18.80;80.80
19952;DHT22;10137;49.406;19.484;2023-05-02T14:19:01;18.70;78.60
19952;DHT22;10137;49.406;19.484;2023-05-02T14:21:28;18.50;78.30
19952;DHT22;10137;49.406;19.484;2023-05-02T14:23:57;18.40;77.30
19952;DHT22;10137;49.406;19.484;2023-05-02T14:26:26;18.30;78.10
19952;DHT22;10137;49.406;19.484;2023-05-02T14:28:54;18.30;80.30
19952;DHT22;10137;49.406;19.484;2023-05-02T14:31:24;18.20;79.50
19952;DHT22;10137;49.406;19.484;2023-05-02T14:33:53;18.20;79.30
19952;DHT22;10137;49.406;19.484;2023-05-02T14:36:21;18.20;80.00
19952;DHT22;10137;49.406;19.484;2023-05-02T14:38:49;18.30;80.90
19952;DHT22;10137;49.406;19.484;2023-05-02T14:41:18;18.30;80.00
19952;DHT22;10137;49.406;19.484;2023-05-02T14:43:47;18.30;79.40
19952;DHT22;10137;49.406;19.484;2023-05-02T14:46:15;18.30;78.60
19952;DHT22;10137;49.406;19.484;2023-05-02T14:48:45;18.30;78.50
19952;DHT22;10137;49.406;19.484;2023-05-02T14:51:15;18.30;81.30
19952;DHT22;10137;49.406;19.484;2023-05-02T14:53:43;18.20;82.10
19952;DHT22;10137;49.406;19.484;2023-05-02T14:56:14;18.10;82.30
19952;DHT22;10137;49.406;19.484;2023-05-02T14:58:44;17.80;82.40
19952;DHT22;10137;49.406;19.484;2023-05-02T15:01:16;17.70;84.00
19952;DHT22;10137;49.406;19.484;2023-05-02T15:03:45;17.50;86.90
19952;DHT22;10137;49.406;19.484;2023-05-02T15:06:15;17.40;91.20
19952;DHT22;10137;49.406;19.484;2023-05-02T15:08:43;17.20;94.30
19952;DHT22;10137;49.406;19.484;2023-05-02T15:11:12;17.10;98.00
19952;DHT22;10137;49.406;19.484;2023-05-02T15:13:40;17.00;99.90
19952;DHT22;10137;49.406;19.484;2023-05-02T15:16:08;16.80;99.90
19952;DHT22;10137;49.406;19.484;2023-05-02T15:18:37;16.70;99.90
19952;DHT22;10137;49.406;19.484;2023-05-02T15:21:07;16.50;99.90
19952;DHT22;10137;49.406;19.484;2023-05-02T15:23:35;16.40;99.90
19952;DHT22;10137;49.406;19.484;2023-05-02T15:26:03;16.30;99.90
19952;DHT22;10137;49.406;19.484;2023-05-02T15:28:32;16.10;99.90
19952;DHT22;10137;49.406;19.484;2023-05-02T15:31:01;15.90;99.90
19952;DHT22;10137;49.406;19.484;2023-05-02T15:33:29;15.90;99.90
19952;DHT22;10137;49.406;19.484;2023-05-02T15:35:57;15.80;99.90
19952;DHT22;10137;49.406;19.484;2023-05-02T15:38:27;15.70;99.90
19952;DHT22;10137;49.406;19.484;2023-05-02T15:40:58;15.50;99.90
19952;DHT22;10137;49.406;19.484;2023-05-02T15:43:27;15.40;99.90
19952;DHT22;10137;49.406;19.484;2023-05-02T15:45:56;15.20;99.90